Time;durP1;ratioP1;P1;durP2;ratioP2;P2;SDS_P1;SDS_P2;PMS_P1;PMS_P2;Temp;Humidity;BMP_temperature;BMP_pressure;BME280_temperature;BME280_humidity;BME280_pressure;Samples;Min_cycle;Max_cycle;Signal;HPM_P1;HPM_P2
2021/10/26 00:02:11;;;;;;;5.77;5.33;;;;;;;2.52;99.95;96013.22;5040892;28;20322;-69
2021/10/26 00:04:39;;;;;;;6.30;5.80;;;;;;;2.50;99.64;96015.13;5035505;28;20293;-69
2021/10/26 00:07:08;;;;;;;7.03;6.33;;;;;;;2.50;99.30;96016.91;5038535;28;20452;-68
2021/10/26 00:09:37;;;;;;;5.73;5.20;;;;;;;2.53;99.11;96024.47;5039198;28;20230;-69
2021/10/26 00:12:07;;;;;;;7.23;6.40;;;;;;;2.61;98.94;96021.25;5037683;28;20258;-69
2021/10/26 00:14:35;;;;;;;6.77;6.27;;;;;;;2.65;99.94;96020.03;5039670;28;20260;-69
2021/10/26 00:17:04;;;;;;;6.03;5.63;;;;;;;2.69;99.31;96018.84;5038052;28;20272;-70
2021/10/26 00:19:32;;;;;;;7.07;6.23;;;;;;;2.71;99.85;96022.13;5021470;28;20258;-69
2021/10/26 00:22:01;;;;;;;7.27;6.60;;;;;;;2.64;99.91;96021.81;5041159;28;20294;-69
2021/10/26 00:24:30;;;;;;;6.30;5.70;;;;;;;2.61;99.16;96026.47;5033616;28;20250;-69
2021/10/26 00:26:58;;;;;;;5.73;4.97;;;;;;;2.59;99.71;96023.16;5040128;28;20676;-69
2021/10/26 00:29:26;;;;;;;8.53;7.73;;;;;;;2.59;99.45;96017.94;5032618;28;20820;-69
2021/10/26 00:31:55;;;;;;;5.00;4.70;;;;;;;2.54;99.55;96023.53;5035395;28;20659;-69
2021/10/26 00:34:23;;;;;;;8.13;7.33;;;;;;;2.47;99.55;96023.22;5036827;28;22638;-69
2021/10/26 00:36:51;;;;;;;5.73;5.27;;;;;;;2.34;98.85;96030.34;5037675;28;20211;-71
2021/10/26 00:39:19;;;;;;;6.37;5.57;;;;;;;2.08;98.71;96024.63;5036149;28;20227;-71
2021/10/26 00:41:49;;;;;;;6.27;5.83;;;;;;;2.05;98.52;96031.88;5038088;28;20211;-71
2021/10/26 00:44:17;;;;;;;5.77;5.30;;;;;;;1.98;98.48;96027.16;5036847;28;20222;-71
2021/10/26 00:46:45;;;;;;;5.77;5.37;;;;;;;2.02;98.94;96029.53;5036458;28;20230;-71
2021/10/26 00:49:13;;;;;;;4.93;4.73;;;;;;;2.03;99.10;96020.78;5048143;28;20447;-71
2021/10/26 00:51:43;;;;;;;6.03;5.40;;;;;;;2.06;98.94;96020.50;5038578;28;20221;-69
2021/10/26 00:54:11;;;;;;;7.20;6.00;;;;;;;2.07;99.43;96024.75;5036454;28;20252;-69
2021/10/26 00:56:45;;;;;;;6.23;5.73;;;;;;;2.08;99.24;96023.81;5053676;28;20226;-70
2021/10/26 00:59:15;;;;;;;5.50;5.10;;;;;;;2.12;100.00;96020.03;5036352;28;20230;-69
2021/10/26 01:01:47;;;;;;;6.43;5.83;;;;;;;2.13;99.26;96019.06;5036080;28;20710;-70
2021/10/26 01:04:17;;;;;;;6.23;5.83;;;;;;;2.14;98.82;96024.16;5036735;28;20219;-69
2021/10/26 01:06:46;;;;;;;6.63;6.23;;;;;;;2.14;99.97;96018.94;5034918;28;20223;-69
2021/10/26 01:09:16;;;;;;;6.37;5.00;;;;;;;2.16;99.43;96026.63;5051884;28;20227;-69
2021/10/26 01:11:44;;;;;;;6.83;6.10;;;;;;;2.15;99.64;96024.97;5037180;28;20230;-70
2021/10/26 01:14:15;;;;;;;6.53;6.07;;;;;;;2.12;99.97;96023.47;5052531;28;20254;-70
2021/10/26 01:16:44;;;;;;;5.20;4.70;;;;;;;2.14;99.93;96025.94;5036905;28;20310;-68
2021/10/26 01:19:15;;;;;;;5.73;5.23;;;;;;;2.12;100.00;96020.03;5035662;28;20923;-69
2021/10/26 01:21:44;;;;;;;4.23;3.30;;;;;;;2.06;99.30;96025.72;5037266;28;20405;-70
2021/10/26 01:24:14;;;;;;;4.70;4.40;;;;;;;2.03;99.75;96031.19;5035701;28;20219;-70
2021/10/26 01:26:42;;;;;;;5.17;4.77;;;;;;;2.00;99.56;96027.84;5033428;28;20230;-69
2021/10/26 01:29:10;;;;;;;5.43;5.03;;;;;;;1.99;99.44;96021.00;5034037;28;20223;-69
2021/10/26 01:31:41;;;;;;;6.23;5.83;;;;;;;1.99;100.00;96026.19;5039244;28;20230;-69
2021/10/26 01:34:30;;;;;;;4.67;4.37;;;;;;;1.98;99.73;96029.75;5034652;28;20212;-69
2021/10/26 01:37:01;;;;;;;5.90;5.40;;;;;;;1.99;99.85;96025.38;5034161;28;20272;-69
2021/10/26 01:39:30;;;;;;;6.27;5.00;;;;;;;1.98;99.35;96027.16;5038045;28;20243;-69
2021/10/26 01:42:00;;;;;;;4.50;4.17;;;;;;;1.98;99.68;96024.53;5038646;28;20222;-69
2021/10/26 01:44:28;;;;;;;5.73;5.33;;;;;;;1.99;99.50;96026.19;5037910;28;20222;-69
2021/10/26 01:47:04;;;;;;;5.57;5.07;;;;;;;1.99;99.58;96030.56;5037668;28;20302;-69
2021/10/26 01:49:32;;;;;;;5.00;4.67;;;;;;;1.99;99.02;96023.59;5038543;28;20262;-69
2021/10/26 01:52:03;;;;;;;4.20;3.87;;;;;;;2.02;99.52;96019.13;5044332;28;20294;-69
2021/10/26 01:54:36;;;;;;;4.77;4.37;;;;;;;1.97;99.41;96022.91;5036725;28;20238;-70
2021/10/26 01:57:05;;;;;;;4.30;4.00;;;;;;;1.99;98.98;96023.59;5042079;28;20234;-69
2021/10/26 01:59:49;;;;;;;4.83;4.53;;;;;;;2.02;99.74;96021.72;5040000;28;20281;-69
2021/10/26 02:02:18;;;;;;;5.50;5.00;;;;;;;2.04;99.56;96018.03;5057566;28;20687;-69
2021/10/26 02:04:46;;;;;;;5.23;4.93;;;;;;;2.09;99.24;96028.06;5037054;28;20670;-69
2021/10/26 02:07:17;;;;;;;6.23;5.63;;;;;;;2.14;99.82;96028.53;5041302;28;20223;-70
2021/10/26 02:09:46;;;;;;;5.47;4.90;;;;;;;2.20;100.00;96026.28;5056254;28;20660;-70
2021/10/26 02:12:15;;;;;;;4.50;4.20;;;;;;;2.24;99.71;96029.44;5042061;28;20292;-70
2021/10/26 02:14:44;;;;;;;5.67;5.17;;;;;;;2.24;99.89;96026.84;5038733;28;20246;-70
2021/10/26 02:17:13;;;;;;;5.37;4.90;;;;;;;2.26;100.00;96032.75;5057213;28;20668;-70
2021/10/26 02:19:41;;;;;;;5.90;5.23;;;;;;;2.28;99.67;96034.28;5055351;28;20233;-70
2021/10/26 02:22:09;;;;;;;4.60;4.20;;;;;;;2.28;99.14;96036.88;5040444;28;20226;-70
2021/10/26 02:24:38;;;;;;;4.80;4.30;;;;;;;2.29;98.90;96037.72;5040236;28;20227;-70
2021/10/26 02:27:07;;;;;;;4.40;4.00;;;;;;;2.24;98.58;96042.47;5039886;28;20250;-70
2021/10/26 02:29:35;;;;;;;5.07;4.37;;;;;;;2.19;98.98;96037.63;5057255;28;20302;-70
2021/10/26 02:32:07;;;;;;;6.27;4.67;;;;;;;2.14;98.28;96038.94;5039451;28;20226;-70
2021/10/26 02:34:36;;;;;;;5.13;4.73;;;;;;;2.10;98.76;96043.56;5055783;28;20219;-69
2021/10/26 02:37:04;;;;;;;4.20;3.83;;;;;;;2.10;97.68;96042.72;5041238;28;20223;-69
2021/10/26 02:39:33;;;;;;;6.73;5.40;;;;;;;2.01;98.23;96049.50;5038685;28;20785;-70
2021/10/26 02:42:03;;;;;;;8.63;5.80;;;;;;;1.98;98.91;96044.53;5040648;28;20236;-70
2021/10/26 02:44:34;;;;;;;5.17;4.67;;;;;;;1.95;98.50;96047.41;5054925;28;20216;-70
2021/10/26 02:47:03;;;;;;;5.23;4.80;;;;;;;1.91;97.93;96049.41;5044261;28;20211;-70
2021/10/26 02:49:31;;;;;;;5.07;4.67;;;;;;;1.91;98.68;96054.59;5038005;28;20243;-70
2021/10/26 02:52:00;;;;;;;4.63;4.30;;;;;;;1.93;98.48;96057.09;5036230;28;20519;-69
2021/10/26 02:54:28;;;;;;;4.67;4.37;;;;;;;1.91;98.72;96057.19;5042962;28;20223;-69
2021/10/26 02:56:56;;;;;;;6.97;4.27;;;;;;;1.84;97.60;96061.25;5041995;28;20309;-70
2021/10/26 02:59:26;;;;;;;4.83;4.43;;;;;;;1.84;97.56;96061.25;5044653;28;20223;-69
2021/10/26 03:01:54;;;;;;;4.60;4.20;;;;;;;1.82;98.32;96065.72;5041206;28;20225;-69
2021/10/26 03:04:23;;;;;;;4.90;4.50;;;;;;;1.87;97.77;96068.81;5040269;28;20233;-69
2021/10/26 03:06:52;;;;;;;6.53;4.37;;;;;;;1.75;98.32;96064.59;5043580;28;20647;-69
2021/10/26 03:09:20;;;;;;;5.40;4.40;;;;;;;1.71;98.52;96065.75;5039387;28;20728;-70
2021/10/26 03:11:48;;;;;;;6.20;5.27;;;;;;;1.70;97.91;96077.09;5039650;28;20293;-70
2021/10/26 03:14:18;;;;;;;3.70;3.30;;;;;;;1.72;98.24;96070.00;5041500;28;20314;-70
2021/10/26 03:16:47;;;;;;;5.60;4.17;;;;;;;1.77;98.74;96073.09;5039830;28;20646;-70
2021/10/26 03:19:15;;;;;;;5.37;4.97;;;;;;;1.82;98.62;96076.16;5040862;28;20215;-69
2021/10/26 03:21:45;;;;;;;6.97;5.37;;;;;;;1.77;98.80;96072.25;5040910;28;20277;-70
2021/10/26 03:24:13;;;;;;;7.90;5.63;;;;;;;1.73;98.62;96076.84;5039437;28;20766;-70
2021/10/26 03:26:41;;;;;;;5.10;4.60;;;;;;;1.78;98.38;96073.91;5040011;28;20219;-69
2021/10/26 03:29:10;;;;;;;7.23;6.00;;;;;;;1.70;98.16;96071.91;5044384;28;20723;-70
2021/10/26 03:31:39;;;;;;;4.77;4.43;;;;;;;1.64;98.63;96087.97;5041496;28;20720;-70
2021/10/26 03:34:26;;;;;;;6.93;4.83;;;;;;;1.67;98.85;96087.75;5043939;28;20223;-69
2021/10/26 03:36:54;;;;;;;4.53;4.17;;;;;;;1.61;98.83;96089.06;5041794;28;20310;-70
2021/10/26 03:39:22;;;;;;;7.43;4.97;;;;;;;1.66;98.93;96086.09;5039547;28;20250;-69
2021/10/26 03:41:52;;;;;;;6.23;4.43;;;;;;;1.63;99.10;96083.72;5043656;28;20231;-69
2021/10/26 03:44:19;;;;;;;6.87;5.00;;;;;;;1.63;99.19;96081.13;5042548;28;20317;-69
2021/10/26 03:46:47;;;;;;;9.33;4.77;;;;;;;1.66;99.31;96086.94;5042970;28;20309;-70
2021/10/26 03:49:17;;;;;;;6.77;6.17;;;;;;;1.70;99.78;96087.50;5060055;28;20219;-70
2021/10/26 03:51:47;;;;;;;5.50;4.97;;;;;;;1.73;99.57;96092.47;5038301;28;20234;-70
2021/10/26 03:54:15;;;;;;;8.97;5.30;;;;;;;1.75;99.35;96094.97;5043363;28;20215;-69
2021/10/26 03:56:47;;;;;;;6.33;5.30;;;;;;;1.73;99.36;96097.69;5036947;28;20227;-70
2021/10/26 03:59:15;;;;;;;5.27;4.83;;;;;;;1.74;99.35;96099.34;5037395;28;20597;-69
2021/10/26 04:01:43;;;;;;;6.30;5.13;;;;;;;1.76;99.44;96101.84;5036779;28;20341;-70
2021/10/26 04:04:11;;;;;;;7.87;6.67;;;;;;;1.81;99.92;96097.91;5049495;28;20211;-69
2021/10/26 04:06:43;;;;;;;5.77;5.17;;;;;;;1.88;99.55;96095.66;5041082;28;20218;-70
2021/10/26 04:09:13;;;;;;;5.67;5.10;;;;;;;1.96;99.67;96096.72;5057051;28;20560;-69
2021/10/26 04:11:51;;;;;;;6.17;5.67;;;;;;;2.04;99.85;96097.91;5053026;28;20218;-70
2021/10/26 04:14:20;;;;;;;8.40;5.47;;;;;;;2.15;99.96;96092.66;5040108;28;20226;-70
2021/10/26 04:16:52;;;;;;;7.90;7.30;;;;;;;2.28;99.90;96093.34;5037896;28;21432;-70
2021/10/26 04:19:20;;;;;;;9.00;8.23;;;;;;;2.36;100.00;96093.56;5048776;28;20688;-70
2021/10/26 04:21:48;;;;;;;10.30;9.30;;;;;;;2.44;99.39;96104.19;5040054;28;20234;-70
2021/10/26 04:24:18;;;;;;;16.60;10.93;;;;;;;2.54;100.00;96102.50;5035346;28;20223;-69
2021/10/26 04:26:49;;;;;;;9.77;8.93;;;;;;;2.61;99.87;96105.44;5026498;28;20259;-69
2021/10/26 04:29:17;;;;;;;10.53;9.17;;;;;;;2.71;100.00;96105.53;5034019;28;20235;-70
2021/10/26 04:31:45;;;;;;;10.80;9.80;;;;;;;2.76;99.85;96108.59;5038918;28;20234;-70
2021/10/26 04:34:20;;;;;;;10.90;9.80;;;;;;;2.76;100.00;96111.19;5039860;28;20214;-70
2021/10/26 04:36:48;;;;;;;10.27;9.23;;;;;;;2.77;100.00;96105.03;5042332;28;20232;-70
2021/10/26 04:39:18;;;;;;;9.13;8.20;;;;;;;2.83;100.00;96101.91;5040594;28;20235;-70
2021/10/26 04:41:48;;;;;;;9.30;8.40;;;;;;;2.96;100.00;96113.00;5042739;28;20737;-70
2021/10/26 04:44:16;;;;;;;9.00;8.30;;;;;;;3.09;100.00;96111.03;5043395;28;20814;-70
2021/10/26 04:46:44;;;;;;;8.87;7.97;;;;;;;3.14;100.00;96102.84;5037180;28;20231;-70
2021/10/26 04:49:12;;;;;;;9.80;8.80;;;;;;;3.16;100.00;96115.75;5045853;28;20211;-70
2021/10/26 04:51:41;;;;;;;11.87;10.47;;;;;;;3.09;100.00;96103.19;5037329;28;20708;-70
2021/10/26 04:54:09;;;;;;;7.53;6.87;;;;;;;2.90;99.11;96110.06;5038027;28;20711;-70
2021/10/26 04:56:40;;;;;;;12.20;6.67;;;;;;;2.91;99.65;96112.53;5052639;28;20268;-70
2021/10/26 04:59:27;;;;;;;6.10;5.63;;;;;;;2.76;98.30;96117.25;5037223;28;20779;-70
2021/10/26 05:01:55;;;;;;;8.30;7.50;;;;;;;2.65;98.47;96111.22;5031722;28;20696;-70
2021/10/26 05:04:24;;;;;;;6.50;6.10;;;;;;;2.63;98.32;96113.13;5038488;28;20268;-70
2021/10/26 05:06:53;;;;;;;6.33;5.73;;;;;;;2.48;98.45;96110.00;5036180;28;21740;-70
2021/10/26 05:09:22;;;;;;;8.47;7.67;;;;;;;2.20;97.50;96111.38;5028943;28;20227;-70
2021/10/26 05:11:52;;;;;;;10.13;7.70;;;;;;;2.11;97.42;96112.09;5034996;28;20219;-70
2021/10/26 05:14:20;;;;;;;7.23;6.50;;;;;;;2.06;97.67;96115.03;5033322;28;20313;-70
2021/10/26 05:17:08;;;;;;;11.17;6.03;;;;;;;2.11;98.43;96101.69;5038530;28;20215;-70
2021/10/26 05:19:56;;;;;;;8.80;8.00;;;;;;;2.14;98.67;96106.63;5038297;28;20215;-70
2021/10/26 05:22:43;;;;;;;11.83;7.90;;;;;;;2.24;99.15;96120.59;5034680;28;20254;-70
2021/10/26 05:25:30;;;;;;;8.90;8.10;;;;;;;2.34;100.00;96128.50;5042723;28;20833;-70
2021/10/26 05:28:09;;;;;;;8.97;7.47;;;;;;;2.43;100.00;96122.56;5038326;28;20302;-70
2021/10/26 05:30:38;;;;;;;11.17;9.13;;;;;;;2.52;100.00;96122.63;5041431;28;20211;-70
2021/10/26 05:33:07;;;;;;;13.67;8.63;;;;;;;2.58;100.00;96133.53;5043991;28;20841;-68
2021/10/26 05:35:36;;;;;;;7.80;7.20;;;;;;;2.63;100.00;96128.75;5045794;28;20289;-68
2021/10/26 05:38:05;;;;;;;10.80;9.30;;;;;;;2.70;99.96;96140.34;5059965;28;20401;-68
2021/10/26 05:40:33;;;;;;;8.63;7.93;;;;;;;2.85;100.00;96141.72;5045175;28;20211;-68
2021/10/26 05:43:01;;;;;;;10.10;7.37;;;;;;;3.00;100.00;96135.25;5040504;28;20696;-68
2021/10/26 05:45:31;;;;;;;9.57;8.63;;;;;;;3.17;100.00;96140.84;5042189;28;20767;-68
2021/10/26 05:47:59;;;;;;;12.30;9.57;;;;;;;3.32;100.00;96137.81;5045725;28;20215;-68
2021/10/26 05:50:27;;;;;;;17.77;12.03;;;;;;;3.43;100.00;96139.53;5040353;28;20571;-68
2021/10/26 05:52:55;;;;;;;9.60;8.60;;;;;;;3.57;100.00;96141.81;5043326;28;20258;-69
2021/10/26 05:55:23;;;;;;;12.97;11.80;;;;;;;3.62;99.87;96146.63;5044360;28;20230;-68
2021/10/26 05:57:51;;;;;;;23.90;20.30;;;;;;;3.72;100.00;96147.50;5041715;28;20277;-68
2021/10/26 06:00:19;;;;;;;19.00;16.97;;;;;;;3.90;99.52;96152.97;5044280;28;20285;-68
2021/10/26 06:02:49;;;;;;;13.97;12.67;;;;;;;4.07;99.14;96154.13;5042529;28;20602;-69
2021/10/26 06:05:16;;;;;;;15.10;11.10;;;;;;;4.18;99.39;96151.41;5041443;28;20223;-69
2021/10/26 06:07:44;;;;;;;15.77;12.70;;;;;;;4.25;98.96;96155.97;5039083;28;20281;-68
2021/10/26 06:10:13;;;;;;;14.10;12.83;;;;;;;4.39;98.70;96148.72;5056662;28;20308;-69
2021/10/26 06:12:53;;;;;;;15.03;13.33;;;;;;;4.53;98.45;96150.97;5056405;28;20304;-68
2021/10/26 06:15:22;;;;;;;14.37;12.97;;;;;;;4.60;98.29;96152.09;5041006;28;20229;-68
2021/10/26 06:17:52;;;;;;;14.63;12.63;;;;;;;4.68;98.02;96157.47;5041428;28;20570;-68
2021/10/26 06:20:23;;;;;;;13.70;12.37;;;;;;;4.75;97.85;96160.34;5037275;28;20678;-68
2021/10/26 06:22:51;;;;;;;23.40;14.00;;;;;;;4.81;97.70;96168.50;5042871;28;20225;-68
2021/10/26 06:25:20;;;;;;;16.20;14.43;;;;;;;4.87;97.89;96176.75;5069920;28;20225;-68
2021/10/26 06:28:07;;;;;;;14.67;11.43;;;;;;;4.92;97.97;96182.41;5043274;28;20218;-68
2021/10/26 06:30:35;;;;;;;9.93;8.93;;;;;;;4.94;98.10;96185.69;5039296;28;20714;-68
2021/10/26 06:33:11;;;;;;;10.17;9.30;;;;;;;4.96;97.92;96183.78;5044124;28;20440;-69
2021/10/26 06:35:42;;;;;;;9.73;8.67;;;;;;;4.97;97.48;96193.28;5039734;28;20222;-68
2021/10/26 06:38:11;;;;;;;10.30;9.30;;;;;;;4.96;97.54;96189.84;5041236;28;20664;-68
2021/10/26 06:40:39;;;;;;;8.70;7.87;;;;;;;4.98;97.60;96198.38;5041015;28;20262;-68
2021/10/26 06:43:25;;;;;;;8.93;8.13;;;;;;;5.04;98.11;96197.84;5042163;28;20239;-68
2021/10/26 06:46:12;;;;;;;9.77;8.83;;;;;;;5.13;98.18;96201.44;5042656;28;20219;-68
2021/10/26 06:49:00;;;;;;;10.30;9.30;;;;;;;5.27;98.54;96201.00;5043148;28;20665;-68
2021/10/26 06:51:47;;;;;;;9.13;8.23;;;;;;;5.41;98.61;96190.13;5041895;28;20226;-68
2021/10/26 06:54:34;;;;;;;15.20;10.70;;;;;;;5.55;98.49;96201.13;5043598;28;20230;-68
2021/10/26 06:57:21;;;;;;;15.13;8.67;;;;;;;5.65;98.49;96194.91;5042476;28;20229;-68
2021/10/26 07:00:09;;;;;;;10.17;9.20;;;;;;;5.75;98.72;96207.97;5042028;28;20313;-68
2021/10/26 07:02:57;;;;;;;15.47;10.57;;;;;;;5.83;98.51;96213.34;5042410;28;20309;-68
2021/10/26 07:05:50;;;;;;;11.90;10.27;;;;;;;5.98;98.39;96213.78;5046754;28;20234;-68
2021/10/26 07:08:33;;;;;;;11.37;10.37;;;;;;;6.19;98.11;96216.19;5042021;28;20226;-67
2021/10/26 07:11:39;;;;;;;11.37;10.37;;;;;;;6.47;97.33;96217.03;5040452;28;20213;-68
2021/10/26 07:14:11;;;;;;;12.70;11.37;;;;;;;6.63;96.55;96224.28;5042638;28;20207;-68
2021/10/26 07:16:42;;;;;;;12.30;11.17;;;;;;;6.78;96.27;96220.22;5041141;28;20276;-68
2021/10/26 07:19:12;;;;;;;10.10;9.10;;;;;;;6.95;95.90;96229.94;5042734;28;20219;-68
2021/10/26 07:22:00;;;;;;;12.67;9.37;;;;;;;7.13;95.40;96228.16;5041905;28;20569;-68
2021/10/26 07:24:58;;;;;;;10.50;9.63;;;;;;;7.28;95.10;96225.81;5042853;28;20229;-68
2021/10/26 07:27:27;;;;;;;12.43;11.13;;;;;;;7.44;94.33;96234.84;5039994;28;20563;-68
2021/10/26 07:29:55;;;;;;;9.47;8.53;;;;;;;7.56;93.79;96239.69;5043447;28;20231;-68
2021/10/26 07:32:24;;;;;;;10.53;8.60;;;;;;;7.65;93.89;96243.22;5041802;28;20699;-68
2021/10/26 07:34:53;;;;;;;8.93;7.97;;;;;;;7.73;94.09;96245.09;5040297;28;20220;-67
2021/10/26 07:37:28;;;;;;;10.13;9.23;;;;;;;7.77;94.22;96246.44;5040585;28;20833;-68
2021/10/26 07:40:07;;;;;;;8.83;7.63;;;;;;;7.80;94.48;96246.16;5035302;28;20866;-67
2021/10/26 07:42:55;;;;;;;15.83;9.03;;;;;;;7.83;94.28;96245.81;5040190;28;20232;-68
2021/10/26 07:45:49;;;;;;;7.47;6.70;;;;;;;7.84;94.17;96247.47;5029992;28;20770;-68
2021/10/26 07:48:17;;;;;;;10.23;9.07;;;;;;;7.84;94.77;96248.31;5052572;28;20288;-68
2021/10/26 07:50:47;;;;;;;13.50;9.67;;;;;;;7.81;95.12;96253.03;5041740;28;20659;-68
2021/10/26 07:53:16;;;;;;;12.17;9.63;;;;;;;7.84;95.80;96257.97;5042328;28;20252;-68
2021/10/26 07:55:57;;;;;;;9.93;8.27;;;;;;;7.87;95.14;96255.06;5037847;28;20229;-68
2021/10/26 07:58:26;;;;;;;12.83;8.83;;;;;;;7.89;96.12;96261.00;5042508;28;20336;-69
2021/10/26 08:00:55;;;;;;;9.10;8.20;;;;;;;7.97;96.16;96258.44;5042372;28;20244;-68
2021/10/26 08:03:46;;;;;;;8.77;7.90;;;;;;;8.05;96.86;96255.88;5040186;28;20235;-69
2021/10/26 08:06:14;;;;;;;9.97;7.67;;;;;;;8.13;96.94;96260.34;5042005;28;20212;-68
2021/10/26 08:08:44;;;;;;;14.47;8.70;;;;;;;8.22;97.58;96256.78;5041741;28;20734;-69
2021/10/26 08:11:15;;;;;;;11.10;10.03;;;;;;;8.27;98.04;96257.97;5042503;28;20305;-69
2021/10/26 08:13:45;;;;;;;12.80;11.50;;;;;;;8.35;98.19;96259.03;5041142;28;20925;-68
2021/10/26 08:16:16;;;;;;;14.10;11.17;;;;;;;8.43;97.83;96261.72;5039479;28;20223;-68
2021/10/26 08:18:45;;;;;;;9.07;8.17;;;;;;;8.48;98.30;96256.81;5043804;28;20238;-68
2021/10/26 08:21:14;;;;;;;9.63;8.73;;;;;;;8.55;97.82;96255.22;5040699;28;20675;-68
2021/10/26 08:23:48;;;;;;;9.93;9.07;;;;;;;8.58;97.88;96268.03;5041801;28;20258;-68
2021/10/26 08:26:20;;;;;;;16.10;10.10;;;;;;;8.66;98.11;96270.72;5038230;28;20229;-68
2021/10/26 08:28:53;;;;;;;10.83;9.20;;;;;;;8.81;97.79;96263.06;5042278;28;20309;-68
2021/10/26 08:31:25;;;;;;;12.67;10.57;;;;;;;8.96;97.40;96265.91;5055204;28;20217;-68
2021/10/26 08:34:14;;;;;;;9.60;8.60;;;;;;;9.18;97.44;96259.25;5049604;28;20219;-69
2021/10/26 08:36:45;;;;;;;13.23;10.37;;;;;;;9.39;96.91;96264.88;5034796;28;20236;-68
2021/10/26 08:39:15;;;;;;;12.83;10.73;;;;;;;9.55;95.79;96262.28;5040891;28;20276;-68
2021/10/26 08:41:49;;;;;;;12.70;10.57;;;;;;;9.78;95.29;96257.19;5039986;28;20262;-68
2021/10/26 08:44:19;;;;;;;9.60;8.70;;;;;;;10.05;94.41;96255.22;5041822;28;20525;-68
2021/10/26 08:46:48;;;;;;;10.53;7.20;;;;;;;10.10;93.31;96260.84;5041060;28;20603;-68
2021/10/26 08:49:20;;;;;;;10.30;9.00;;;;;;;10.14;93.01;96267.41;5035503;28;20226;-68
2021/10/26 08:52:07;;;;;;;8.37;7.67;;;;;;;10.17;93.37;96256.53;5037919;28;20330;-68
2021/10/26 08:54:37;;;;;;;10.90;9.50;;;;;;;10.17;92.94;96264.47;5035315;28;20219;-69
2021/10/26 08:57:05;;;;;;;9.73;8.47;;;;;;;10.01;94.21;96267.09;5038019;28;20310;-68
2021/10/26 08:59:52;;;;;;;11.00;10.00;;;;;;;10.05;94.69;96266.59;5039701;28;20222;-68
2021/10/26 09:02:35;;;;;;;10.20;9.20;;;;;;;10.14;94.64;96267.41;5039006;28;20234;-68
2021/10/26 09:05:12;;;;;;;11.40;10.43;;;;;;;10.16;94.07;96265.44;5038893;28;20384;-68
2021/10/26 09:07:41;;;;;;;9.50;8.17;;;;;;;10.26;93.25;96258.22;5039373;28;20222;-68
2021/10/26 09:10:16;;;;;;;8.93;8.10;;;;;;;10.32;92.93;96260.16;5039882;28;20223;-68
2021/10/26 09:19:42;;;;;;;9.07;8.40;;;;;;;10.65;91.99;96254.81;5037853;28;20223;-68
2021/10/26 09:22:32;;;;;;;11.80;10.77;;;;;;;10.65;92.32;96257.47;5037735;28;20235;-68
2021/10/26 09:25:03;;;;;;;8.73;8.03;;;;;;;10.78;91.33;96263.03;5039023;28;20700;-69
2021/10/26 09:27:34;;;;;;;11.00;10.00;;;;;;;10.75;90.84;96260.72;5038264;28;20223;-68
2021/10/26 09:30:07;;;;;;;8.63;7.93;;;;;;;10.87;90.75;96264.63;5039254;28;20569;-68
2021/10/26 09:32:37;;;;;;;10.43;9.33;;;;;;;10.85;90.81;96260.53;5039952;28;20243;-69
2021/10/26 09:35:08;;;;;;;14.00;9.73;;;;;;;10.96;90.49;96263.63;5036335;28;20639;-69
2021/10/26 09:37:38;;;;;;;8.30;7.67;;;;;;;11.00;90.49;96259.66;5040086;28;20314;-68
2021/10/26 09:40:08;;;;;;;9.70;8.20;;;;;;;11.19;90.82;96262.88;5037952;28;20218;-69
2021/10/26 09:42:44;;;;;;;7.87;7.23;;;;;;;11.27;89.67;96268.13;5033954;28;20306;-68
2021/10/26 09:45:25;;;;;;;7.97;7.27;;;;;;;11.24;89.97;96265.81;5036552;28;20684;-68
2021/10/26 09:47:55;;;;;;;8.33;7.60;;;;;;;11.23;89.89;96269.44;5036357;28;20720;-68
2021/10/26 09:50:30;;;;;;;8.57;7.87;;;;;;;11.23;90.50;96264.16;5039798;28;20223;-68
2021/10/26 09:53:06;;;;;;;7.83;7.23;;;;;;;11.36;90.41;96269.72;5038804;28;20231;-68
2021/10/26 09:55:38;;;;;;;8.23;7.57;;;;;;;11.36;89.55;96262.63;5040785;28;20224;-68
2021/10/26 09:58:13;;;;;;;8.57;7.87;;;;;;;11.56;89.55;96264.81;5041471;28;20234;-69
2021/10/26 10:00:44;;;;;;;8.23;7.50;;;;;;;11.78;88.56;96268.44;5040051;28;20231;-68
2021/10/26 10:03:13;;;;;;;11.33;7.53;;;;;;;12.27;87.84;96271.56;5035246;28;20221;-68
2021/10/26 10:05:42;;;;;;;7.67;6.40;;;;;;;12.09;86.03;96276.38;5038549;28;20735;-68
2021/10/26 10:08:20;;;;;;;7.50;6.83;;;;;;;11.94;86.82;96271.00;5042037;28;20328;-68
2021/10/26 10:10:49;;;;;;;10.00;7.70;;;;;;;12.01;86.50;96274.59;5042009;28;20278;-68
2021/10/26 10:13:19;;;;;;;8.93;7.87;;;;;;;11.80;86.45;96272.63;5038390;28;20249;-68
2021/10/26 10:15:51;;;;;;;9.37;7.73;;;;;;;11.98;86.43;96264.38;5036533;28;20723;-68
2021/10/26 10:18:20;;;;;;;8.00;7.20;;;;;;;12.00;86.86;96254.44;5040653;28;20597;-68
2021/10/26 10:20:51;;;;;;;9.77;7.57;;;;;;;11.91;86.40;96263.44;5041389;28;20233;-68
2021/10/26 10:23:20;;;;;;;6.57;6.03;;;;;;;11.89;86.93;96265.44;5039677;28;20242;-68
2021/10/26 10:25:49;;;;;;;8.90;7.97;;;;;;;11.89;86.28;96257.53;5042148;28;20218;-68
2021/10/26 10:28:20;;;;;;;7.03;6.50;;;;;;;12.02;86.11;96259.56;5041126;28;20293;-69
2021/10/26 10:30:49;;;;;;;7.07;6.57;;;;;;;12.18;85.80;96260.25;5040671;28;20728;-68
2021/10/26 10:33:18;;;;;;;7.53;6.97;;;;;;;12.50;85.01;96260.91;5038963;28;20317;-68
2021/10/26 10:35:48;;;;;;;7.47;6.77;;;;;;;12.76;83.41;96258.66;5038537;28;20229;-68
2021/10/26 10:38:19;;;;;;;12.90;8.10;;;;;;;13.21;82.63;96262.13;5042845;28;20309;-69
2021/10/26 10:40:47;;;;;;;7.17;6.53;;;;;;;13.70;80.92;96258.81;5043153;28;20760;-69
2021/10/26 10:43:36;;;;;;;7.03;6.33;;;;;;;15.48;75.87;96247.78;5041490;28;20215;-68
2021/10/26 10:46:04;;;;;;;5.80;5.17;;;;;;;16.64;69.69;96241.16;5041244;28;20563;-69
2021/10/26 10:48:32;;;;;;;6.77;6.07;;;;;;;16.42;69.21;96242.41;5042255;28;20317;-69
2021/10/26 10:51:11;;;;;;;5.63;5.13;;;;;;;17.95;65.90;96237.41;5042028;28;20773;-69
2021/10/26 10:53:40;;;;;;;5.97;5.60;;;;;;;18.14;64.76;96241.78;5041713;28;20230;-69
2021/10/26 10:56:20;;;;;;;5.77;5.30;;;;;;;18.31;63.01;96232.22;5041101;28;20222;-69
2021/10/26 10:58:50;;;;;;;6.13;5.43;;;;;;;18.15;63.99;96235.41;5040665;28;20223;-68
2021/10/26 11:01:25;;;;;;;6.47;5.97;;;;;;;18.83;63.04;96231.94;5040031;28;20629;-70
2021/10/26 11:03:55;;;;;;;5.77;5.37;;;;;;;18.75;61.95;96233.09;5042667;28;20219;-70
2021/10/26 11:06:55;;;;;;;5.77;5.13;;;;;;;18.75;62.33;96233.09;5038426;28;20222;-70
2021/10/26 11:09:53;;;;;;;5.00;4.60;;;;;;;18.06;63.40;96244.72;5034507;28;20218;-70
2021/10/26 11:12:32;;;;;;;7.80;6.83;;;;;;;17.28;66.07;96237.75;5006430;28;20748;-70
2021/10/26 11:15:05;;;;;;;5.13;4.73;;;;;;;17.15;66.04;96237.78;5039468;28;20557;-70
2021/10/26 11:17:58;;;;;;;5.37;4.87;;;;;;;17.39;66.10;96235.44;5042626;28;20277;-70
2021/10/26 11:20:50;;;;;;;5.97;5.37;;;;;;;16.97;66.26;96229.63;5044228;28;20238;-70
2021/10/26 11:23:39;;;;;;;7.10;5.77;;;;;;;16.95;67.92;96237.84;5032698;28;20229;-70
2021/10/26 11:26:15;;;;;;;4.53;4.23;;;;;;;16.97;66.76;96235.78;5036613;28;20222;-69
2021/10/26 11:28:58;;;;;;;4.43;3.53;;;;;;;16.43;67.78;96236.88;5054477;28;20226;-69
2021/10/26 11:31:31;;;;;;;5.10;4.80;;;;;;;16.51;68.41;96241.16;5031562;28;20305;-69
2021/10/26 11:34:07;;;;;;;4.53;3.87;;;;;;;16.85;67.44;96244.63;5065252;28;20269;-68
2021/10/26 11:36:37;;;;;;;4.00;3.70;;;;;;;16.53;66.50;96244.44;5034826;28;20265;-68
2021/10/26 11:39:11;;;;;;;6.07;5.20;;;;;;;15.42;70.32;96236.09;5034390;28;21871;-68
2021/10/26 11:41:42;;;;;;;3.47;3.23;;;;;;;16.60;68.03;96231.13;5035602;28;20233;-69
2021/10/26 11:44:12;;;;;;;4.03;3.63;;;;;;;16.74;67.53;96230.94;5041971;28;20231;-70
2021/10/26 11:46:44;;;;;;;4.30;4.00;;;;;;;16.47;67.38;96219.47;5041021;28;20239;-69
2021/10/26 11:49:18;;;;;;;5.10;3.07;;;;;;;15.82;68.35;96225.59;5038083;28;20321;-69
2021/10/26 11:51:50;;;;;;;5.57;3.80;;;;;;;15.57;70.25;96236.75;5037009;28;20230;-69
2021/10/26 11:54:20;;;;;;;3.70;3.37;;;;;;;15.02;71.39;96227.97;5037843;28;20266;-68
2021/10/26 11:56:52;;;;;;;5.97;3.87;;;;;;;14.99;73.57;96230.19;5037176;28;20473;-69
2021/10/26 11:59:34;;;;;;;7.50;2.63;;;;;;;14.79;73.22;96225.59;5032584;28;20802;-69
2021/10/26 12:02:22;;;;;;;3.57;3.27;;;;;;;14.77;72.49;96237.44;5036052;28;20431;-69
2021/10/26 12:05:18;;;;;;;5.03;4.63;;;;;;;14.52;73.93;96227.28;5034503;28;20303;-69
2021/10/26 12:07:50;;;;;;;4.03;3.03;;;;;;;14.58;72.50;96220.38;5036226;28;20638;-69